sensor_id;sensor_type;location;lat;lon;timestamp;temperature;humidity
35692;DHT22;26978;44.830;-0.674;2023-03-31T00:00:20;17.20;99.90
35692;DHT22;26978;44.830;-0.674;2023-03-31T00:02:46;17.40;99.90
35692;DHT22;26978;44.830;-0.674;2023-03-31T00:05:12;17.20;99.90
35692;DHT22;26978;44.830;-0.674;2023-03-31T00:07:42;17.30;99.90
35692;DHT22;26978;44.830;-0.674;2023-03-31T00:10:10;17.30;99.90
35692;DHT22;26978;44.830;-0.674;2023-03-31T00:12:36;17.30;99.90
35692;DHT22;26978;44.830;-0.674;2023-03-31T00:15:01;17.30;99.90
35692;DHT22;26978;44.830;-0.674;2023-03-31T00:17:27;17.40;99.90
35692;DHT22;26978;44.830;-0.674;2023-03-31T00:19:53;17.40;99.90
35692;DHT22;26978;44.830;-0.674;2023-03-31T00:22:25;17.30;99.90
35692;DHT22;26978;44.830;-0.674;2023-03-31T00:24:52;17.20;99.90
35692;DHT22;26978;44.830;-0.674;2023-03-31T00:27:18;17.20;99.90
35692;DHT22;26978;44.830;-0.674;2023-03-31T00:29:43;17.20;99.90
35692;DHT22;26978;44.830;-0.674;2023-03-31T00:32:10;17.10;99.90
35692;DHT22;26978;44.830;-0.674;2023-03-31T00:34:36;17.10;99.90
35692;DHT22;26978;44.830;-0.674;2023-03-31T00:37:02;17.00;99.90
35692;DHT22;26978;44.830;-0.674;2023-03-31T00:39:28;16.90;99.90
35692;DHT22;26978;44.830;-0.674;2023-03-31T00:42:04;16.90;99.90
35692;DHT22;26978;44.830;-0.674;2023-03-31T00:44:30;16.80;99.90
35692;DHT22;26978;44.830;-0.674;2023-03-31T00:47:11;16.80;99.90
35692;DHT22;26978;44.830;-0.674;2023-03-31T00:49:46;16.70;99.90
35692;DHT22;26978;44.830;-0.674;2023-03-31T00:52:19;16.70;99.90
35692;DHT22;26978;44.830;-0.674;2023-03-31T00:54:52;16.60;99.90
35692;DHT22;26978;44.830;-0.674;2023-03-31T00:57:21;16.50;99.90
35692;DHT22;26978;44.830;-0.674;2023-03-31T01:00:00;16.40;99.90
35692;DHT22;26978;44.830;-0.674;2023-03-31T01:02:26;16.40;99.90
35692;DHT22;26978;44.830;-0.674;2023-03-31T01:04:57;16.40;99.90
35692;DHT22;26978;44.830;-0.674;2023-03-31T01:07:41;16.30;99.90
35692;DHT22;26978;44.830;-0.674;2023-03-31T01:10:08;16.30;99.90
35692;DHT22;26978;44.830;-0.674;2023-03-31T01:12:38;16.10;99.90
35692;DHT22;26978;44.830;-0.674;2023-03-31T01:15:05;16.10;99.90
35692;DHT22;26978;44.830;-0.674;2023-03-31T01:17:31;16.00;99.90
35692;DHT22;26978;44.830;-0.674;2023-03-31T01:37:28;15.50;99.90
35692;DHT22;26978;44.830;-0.674;2023-03-31T01:40:23;15.50;99.90
35692;DHT22;26978;44.830;-0.674;2023-03-31T01:51:21;15.30;99.90
35692;DHT22;26978;44.830;-0.674;2023-03-31T01:59:13;15.20;99.90
35692;DHT22;26978;44.830;-0.674;2023-03-31T02:01:48;15.00;99.90
35692;DHT22;26978;44.830;-0.674;2023-03-31T02:04:22;15.00;99.90
35692;DHT22;26978;44.830;-0.674;2023-03-31T02:07:02;15.00;99.90
35692;DHT22;26978;44.830;-0.674;2023-03-31T02:09:32;15.00;99.90
35692;DHT22;26978;44.830;-0.674;2023-03-31T02:12:02;15.00;99.90
35692;DHT22;26978;44.830;-0.674;2023-03-31T02:14:31;15.00;99.90
35692;DHT22;26978;44.830;-0.674;2023-03-31T02:16:58;15.00;99.90
35692;DHT22;26978;44.830;-0.674;2023-03-31T02:19:32;14.90;99.90
35692;DHT22;26978;44.830;-0.674;2023-03-31T02:21:58;14.80;99.90
35692;DHT22;26978;44.830;-0.674;2023-03-31T02:24:27;14.70;99.90
35692;DHT22;26978;44.830;-0.674;2023-03-31T02:29:28;14.70;99.90
35692;DHT22;26978;44.830;-0.674;2023-03-31T02:34:39;14.60;99.90
35692;DHT22;26978;44.830;-0.674;2023-03-31T02:37:05;14.50;99.90
35692;DHT22;26978;44.830;-0.674;2023-03-31T02:39:33;14.60;99.90
35692;DHT22;26978;44.830;-0.674;2023-03-31T02:42:01;14.60;99.90
35692;DHT22;26978;44.830;-0.674;2023-03-31T02:44:36;14.70;99.90
35692;DHT22;26978;44.830;-0.674;2023-03-31T02:47:04;14.70;99.90
35692;DHT22;26978;44.830;-0.674;2023-03-31T02:49:30;14.80;99.90
35692;DHT22;26978;44.830;-0.674;2023-03-31T03:03:33;14.80;99.90
35692;DHT22;26978;44.830;-0.674;2023-03-31T03:14:54;14.60;99.90
35692;DHT22;26978;44.830;-0.674;2023-03-31T03:17:45;14.60;99.90
35692;DHT22;26978;44.830;-0.674;2023-03-31T03:20:10;14.60;99.90
35692;DHT22;26978;44.830;-0.674;2023-03-31T03:22:37;14.50;99.90
35692;DHT22;26978;44.830;-0.674;2023-03-31T03:25:08;14.50;99.90
35692;DHT22;26978;44.830;-0.674;2023-03-31T03:27:35;14.40;99.90
35692;DHT22;26978;44.830;-0.674;2023-03-31T03:30:05;14.40;99.90
35692;DHT22;26978;44.830;-0.674;2023-03-31T03:32:32;14.30;99.90
35692;DHT22;26978;44.830;-0.674;2023-03-31T03:35:02;14.30;99.90
35692;DHT22;26978;44.830;-0.674;2023-03-31T03:37:29;14.30;99.90
35692;DHT22;26978;44.830;-0.674;2023-03-31T03:39:55;14.20;99.90
35692;DHT22;26978;44.830;-0.674;2023-03-31T03:42:21;14.20;99.90
35692;DHT22;26978;44.830;-0.674;2023-03-31T03:44:46;14.20;99.90
35692;DHT22;26978;44.830;-0.674;2023-03-31T03:47:12;14.20;99.90
35692;DHT22;26978;44.830;-0.674;2023-03-31T03:49:38;14.20;99.90
35692;DHT22;26978;44.830;-0.674;2023-03-31T03:52:04;14.30;99.90
35692;DHT22;26978;44.830;-0.674;2023-03-31T03:54:30;14.30;99.90
35692;DHT22;26978;44.830;-0.674;2023-03-31T03:56:56;14.30;99.90
35692;DHT22;26978;44.830;-0.674;2023-03-31T03:59:21;14.20;99.90
35692;DHT22;26978;44.830;-0.674;2023-03-31T04:01:47;14.20;99.90
35692;DHT22;26978;44.830;-0.674;2023-03-31T04:04:13;14.10;99.90
35692;DHT22;26978;44.830;-0.674;2023-03-31T04:06:38;14.10;99.90
35692;DHT22;26978;44.830;-0.674;2023-03-31T04:09:04;14.10;99.90
35692;DHT22;26978;44.830;-0.674;2023-03-31T04:11:30;14.10;99.90
35692;DHT22;26978;44.830;-0.674;2023-03-31T04:13:56;14.00;99.90
35692;DHT22;26978;44.830;-0.674;2023-03-31T04:16:21;14.00;99.90
35692;DHT22;26978;44.830;-0.674;2023-03-31T04:18:51;13.90;99.90
35692;DHT22;26978;44.830;-0.674;2023-03-31T04:21:17;13.90;99.90
35692;DHT22;26978;44.830;-0.674;2023-03-31T04:23:53;13.90;99.90
35692;DHT22;26978;44.830;-0.674;2023-03-31T04:26:30;14.00;99.90
35692;DHT22;26978;44.830;-0.674;2023-03-31T04:29:05;14.00;99.90
35692;DHT22;26978;44.830;-0.674;2023-03-31T04:31:32;14.00;99.90
35692;DHT22;26978;44.830;-0.674;2023-03-31T04:33:57;13.90;99.90
35692;DHT22;26978;44.830;-0.674;2023-03-31T04:36:27;13.90;99.90
35692;DHT22;26978;44.830;-0.674;2023-03-31T04:38:53;13.80;99.90
35692;DHT22;26978;44.830;-0.674;2023-03-31T04:41:20;13.80;99.90
35692;DHT22;26978;44.830;-0.674;2023-03-31T04:43:46;13.80;99.90
35692;DHT22;26978;44.830;-0.674;2023-03-31T04:46:12;13.80;99.90
35692;DHT22;26978;44.830;-0.674;2023-03-31T04:48:38;13.80;99.90
35692;DHT22;26978;44.830;-0.674;2023-03-31T04:51:04;13.80;99.90
35692;DHT22;26978;44.830;-0.674;2023-03-31T04:53:30;13.80;99.90
35692;DHT22;26978;44.830;-0.674;2023-03-31T04:55:56;13.70;99.90
35692;DHT22;26978;44.830;-0.674;2023-03-31T04:58:22;13.70;99.90
35692;DHT22;26978;44.830;-0.674;2023-03-31T05:00:47;13.70;99.90
35692;DHT22;26978;44.830;-0.674;2023-03-31T05:03:13;13.60;99.90
35692;DHT22;26978;44.830;-0.674;2023-03-31T05:05:39;13.60;99.90
35692;DHT22;26978;44.830;-0.674;2023-03-31T05:08:05;13.50;99.90
35692;DHT22;26978;44.830;-0.674;2023-03-31T05:10:31;13.50;99.90
35692;DHT22;26978;44.830;-0.674;2023-03-31T05:12:57;13.60;99.90
35692;DHT22;26978;44.830;-0.674;2023-03-31T05:15:22;13.60;99.90
35692;DHT22;26978;44.830;-0.674;2023-03-31T05:17:51;13.60;99.90
35692;DHT22;26978;44.830;-0.674;2023-03-31T05:20:18;13.60;99.90
35692;DHT22;26978;44.830;-0.674;2023-03-31T05:22:44;13.60;99.90
35692;DHT22;26978;44.830;-0.674;2023-03-31T05:25:11;13.50;99.90
35692;DHT22;26978;44.830;-0.674;2023-03-31T05:27:44;13.50;99.90
35692;DHT22;26978;44.830;-0.674;2023-03-31T05:30:12;13.50;99.90
35692;DHT22;26978;44.830;-0.674;2023-03-31T05:32:38;13.40;99.90
35692;DHT22;26978;44.830;-0.674;2023-03-31T05:35:03;13.50;99.90
35692;DHT22;26978;44.830;-0.674;2023-03-31T05:37:30;13.50;99.90
35692;DHT22;26978;44.830;-0.674;2023-03-31T05:39:56;13.40;99.90
35692;DHT22;26978;44.830;-0.674;2023-03-31T05:42:22;13.40;99.90
35692;DHT22;26978;44.830;-0.674;2023-03-31T05:44:47;13.50;99.90
35692;DHT22;26978;44.830;-0.674;2023-03-31T05:47:13;13.50;99.90
35692;DHT22;26978;44.830;-0.674;2023-03-31T05:49:39;13.40;99.90
35692;DHT22;26978;44.830;-0.674;2023-03-31T05:52:06;13.40;99.90
35692;DHT22;26978;44.830;-0.674;2023-03-31T05:54:32;13.40;99.90
35692;DHT22;26978;44.830;-0.674;2023-03-31T05:56:57;13.50;99.90
35692;DHT22;26978;44.830;-0.674;2023-03-31T05:59:23;13.50;99.90
35692;DHT22;26978;44.830;-0.674;2023-03-31T06:01:49;13.50;99.90
35692;DHT22;26978;44.830;-0.674;2023-03-31T06:04:15;13.50;99.90
35692;DHT22;26978;44.830;-0.674;2023-03-31T06:06:40;13.50;99.90
35692;DHT22;26978;44.830;-0.674;2023-03-31T06:09:07;13.60;99.90
35692;DHT22;26978;44.830;-0.674;2023-03-31T06:11:33;13.60;99.90
35692;DHT22;26978;44.830;-0.674;2023-03-31T06:13:59;13.70;99.90
35692;DHT22;26978;44.830;-0.674;2023-03-31T06:16:25;13.70;99.90
35692;DHT22;26978;44.830;-0.674;2023-03-31T06:18:51;13.70;99.90
35692;DHT22;26978;44.830;-0.674;2023-03-31T06:21:18;13.70;99.90
35692;DHT22;26978;44.830;-0.674;2023-03-31T06:23:44;13.70;99.90
35692;DHT22;26978;44.830;-0.674;2023-03-31T06:26:17;13.70;99.90
35692;DHT22;26978;44.830;-0.674;2023-03-31T06:28:44;13.60;99.90
35692;DHT22;26978;44.830;-0.674;2023-03-31T06:31:19;13.60;99.90
35692;DHT22;26978;44.830;-0.674;2023-03-31T06:33:45;13.70;99.90
35692;DHT22;26978;44.830;-0.674;2023-03-31T06:36:13;13.60;99.90
35692;DHT22;26978;44.830;-0.674;2023-03-31T06:38:39;13.60;99.90
35692;DHT22;26978;44.830;-0.674;2023-03-31T06:41:06;13.70;99.90
35692;DHT22;26978;44.830;-0.674;2023-03-31T06:43:33;13.70;99.90
35692;DHT22;26978;44.830;-0.674;2023-03-31T06:45:58;13.70;99.90
35692;DHT22;26978;44.830;-0.674;2023-03-31T06:48:24;13.70;99.90
35692;DHT22;26978;44.830;-0.674;2023-03-31T06:50:52;13.70;99.90
35692;DHT22;26978;44.830;-0.674;2023-03-31T06:53:18;13.80;99.90
35692;DHT22;26978;44.830;-0.674;2023-03-31T06:55:43;13.80;99.90
35692;DHT22;26978;44.830;-0.674;2023-03-31T06:58:09;13.80;99.90
35692;DHT22;26978;44.830;-0.674;2023-03-31T07:00:36;13.80;99.90
35692;DHT22;26978;44.830;-0.674;2023-03-31T07:03:03;13.80;99.90
35692;DHT22;26978;44.830;-0.674;2023-03-31T07:05:29;13.80;99.90
35692;DHT22;26978;44.830;-0.674;2023-03-31T07:07:57;13.90;99.90
35692;DHT22;26978;44.830;-0.674;2023-03-31T07:10:25;14.00;99.90
35692;DHT22;26978;44.830;-0.674;2023-03-31T07:12:51;14.00;99.90
35692;DHT22;26978;44.830;-0.674;2023-03-31T07:15:17;14.10;99.90
35692;DHT22;26978;44.830;-0.674;2023-03-31T07:17:42;14.10;99.90
35692;DHT22;26978;44.830;-0.674;2023-03-31T07:20:09;14.20;99.90
35692;DHT22;26978;44.830;-0.674;2023-03-31T07:22:40;14.20;99.90
35692;DHT22;26978;44.830;-0.674;2023-03-31T07:25:07;14.30;99.90
35692;DHT22;26978;44.830;-0.674;2023-03-31T07:27:32;14.30;99.90
35692;DHT22;26978;44.830;-0.674;2023-03-31T07:29:58;14.40;99.90
35692;DHT22;26978;44.830;-0.674;2023-03-31T07:32:24;14.50;99.90
35692;DHT22;26978;44.830;-0.674;2023-03-31T07:34:49;14.40;99.90
35692;DHT22;26978;44.830;-0.674;2023-03-31T07:37:15;14.50;99.90
35692;DHT22;26978;44.830;-0.674;2023-03-31T07:39:41;14.60;99.90
35692;DHT22;26978;44.830;-0.674;2023-03-31T07:42:06;14.60;99.90
35692;DHT22;26978;44.830;-0.674;2023-03-31T07:44:35;14.70;99.90
35692;DHT22;26978;44.830;-0.674;2023-03-31T07:47:02;14.70;99.90
35692;DHT22;26978;44.830;-0.674;2023-03-31T07:49:33;14.70;99.90
35692;DHT22;26978;44.830;-0.674;2023-03-31T07:51:59;14.70;99.90
35692;DHT22;26978;44.830;-0.674;2023-03-31T07:54:25;14.60;99.90
35692;DHT22;26978;44.830;-0.674;2023-03-31T07:56:51;14.70;99.90
35692;DHT22;26978;44.830;-0.674;2023-03-31T07:59:17;14.80;99.90
35692;DHT22;26978;44.830;-0.674;2023-03-31T08:01:42;14.70;99.90
35692;DHT22;26978;44.830;-0.674;2023-03-31T08:04:09;14.80;99.90
35692;DHT22;26978;44.830;-0.674;2023-03-31T08:06:36;14.80;99.90
35692;DHT22;26978;44.830;-0.674;2023-03-31T08:09:02;14.80;99.90
35692;DHT22;26978;44.830;-0.674;2023-03-31T08:11:29;14.90;99.90
35692;DHT22;26978;44.830;-0.674;2023-03-31T08:13:55;14.80;99.90
35692;DHT22;26978;44.830;-0.674;2023-03-31T08:16:21;14.80;99.90
35692;DHT22;26978;44.830;-0.674;2023-03-31T08:18:47;14.80;99.90
35692;DHT22;26978;44.830;-0.674;2023-03-31T08:21:12;14.80;99.90
35692;DHT22;26978;44.830;-0.674;2023-03-31T08:23:38;14.80;99.90
35692;DHT22;26978;44.830;-0.674;2023-03-31T08:26:12;14.80;99.90
35692;DHT22;26978;44.830;-0.674;2023-03-31T08:28:38;14.90;99.90
35692;DHT22;26978;44.830;-0.674;2023-03-31T08:31:05;14.90;99.90
35692;DHT22;26978;44.830;-0.674;2023-03-31T08:33:32;15.00;99.90
35692;DHT22;26978;44.830;-0.674;2023-03-31T08:36:04;15.10;99.90
35692;DHT22;26978;44.830;-0.674;2023-03-31T08:38:33;15.30;99.90
35692;DHT22;26978;44.830;-0.674;2023-03-31T08:41:01;15.30;99.90
35692;DHT22;26978;44.830;-0.674;2023-03-31T08:43:33;15.20;99.90
35692;DHT22;26978;44.830;-0.674;2023-03-31T08:46:01;15.30;99.90
35692;DHT22;26978;44.830;-0.674;2023-03-31T08:48:33;15.40;99.90
35692;DHT22;26978;44.830;-0.674;2023-03-31T08:51:11;15.30;99.90
35692;DHT22;26978;44.830;-0.674;2023-03-31T08:53:41;15.10;99.90
35692;DHT22;26978;44.830;-0.674;2023-03-31T08:56:14;15.20;99.90
35692;DHT22;26978;44.830;-0.674;2023-03-31T08:58:44;15.40;99.90
35692;DHT22;26978;44.830;-0.674;2023-03-31T09:01:34;15.30;99.90
35692;DHT22;26978;44.830;-0.674;2023-03-31T09:04:21;15.30;99.90
35692;DHT22;26978;44.830;-0.674;2023-03-31T09:12:20;15.70;99.90
35692;DHT22;26978;44.830;-0.674;2023-03-31T09:15:05;15.60;99.90
35692;DHT22;26978;44.830;-0.674;2023-03-31T09:17:46;15.70;99.90
35692;DHT22;26978;44.830;-0.674;2023-03-31T09:22:52;16.00;99.90
35692;DHT22;26978;44.830;-0.674;2023-03-31T09:25:24;16.30;99.90
35692;DHT22;26978;44.830;-0.674;2023-03-31T09:27:54;16.10;99.90
35692;DHT22;26978;44.830;-0.674;2023-03-31T09:30:27;16.10;99.90
35692;DHT22;26978;44.830;-0.674;2023-03-31T09:35:42;15.90;99.90
35692;DHT22;26978;44.830;-0.674;2023-03-31T09:38:12;15.80;99.90
35692;DHT22;26978;44.830;-0.674;2023-03-31T09:40:38;15.80;99.90
35692;DHT22;26978;44.830;-0.674;2023-03-31T09:43:27;15.50;99.90
35692;DHT22;26978;44.830;-0.674;2023-03-31T09:45:54;15.30;99.90
35692;DHT22;26978;44.830;-0.674;2023-03-31T09:48:24;15.30;99.90
35692;DHT22;26978;44.830;-0.674;2023-03-31T09:51:03;15.30;99.90
35692;DHT22;26978;44.830;-0.674;2023-03-31T09:53:49;15.20;99.90
35692;DHT22;26978;44.830;-0.674;2023-03-31T09:59:13;14.60;99.90
35692;DHT22;26978;44.830;-0.674;2023-03-31T10:01:40;14.60;99.90
35692;DHT22;26978;44.830;-0.674;2023-03-31T10:04:07;14.50;99.90
35692;DHT22;26978;44.830;-0.674;2023-03-31T10:06:39;14.70;99.90
35692;DHT22;26978;44.830;-0.674;2023-03-31T10:09:09;14.70;99.90
35692;DHT22;26978;44.830;-0.674;2023-03-31T10:11:36;14.90;99.90
35692;DHT22;26978;44.830;-0.674;2023-03-31T10:14:10;15.30;99.90
35692;DHT22;26978;44.830;-0.674;2023-03-31T10:16:53;15.50;99.90
35692;DHT22;26978;44.830;-0.674;2023-03-31T10:21:55;15.40;99.90
35692;DHT22;26978;44.830;-0.674;2023-03-31T10:24:21;15.50;99.90
35692;DHT22;26978;44.830;-0.674;2023-03-31T10:26:49;15.50;99.90
35692;DHT22;26978;44.830;-0.674;2023-03-31T10:29:21;15.70;99.90
35692;DHT22;26978;44.830;-0.674;2023-03-31T10:32:22;15.80;99.90
35692;DHT22;26978;44.830;-0.674;2023-03-31T10:34:49;15.80;99.90
35692;DHT22;26978;44.830;-0.674;2023-03-31T10:37:21;15.70;99.90
35692;DHT22;26978;44.830;-0.674;2023-03-31T10:40:03;15.60;99.90
35692;DHT22;26978;44.830;-0.674;2023-03-31T10:50:00;16.10;99.90
35692;DHT22;26978;44.830;-0.674;2023-03-31T10:52:28;15.80;99.90
35692;DHT22;26978;44.830;-0.674;2023-03-31T10:54:57;15.80;99.90
35692;DHT22;26978;44.830;-0.674;2023-03-31T11:03:05;15.80;99.90
35692;DHT22;26978;44.830;-0.674;2023-03-31T11:22:07;16.10;99.90
35692;DHT22;26978;44.830;-0.674;2023-03-31T11:28:15;15.90;99.90
35692;DHT22;26978;44.830;-0.674;2023-03-31T11:30:27;15.80;99.90
35692;DHT22;26978;44.830;-0.674;2023-03-31T11:41:19;15.70;99.90
35692;DHT22;26978;44.830;-0.674;2023-03-31T11:44:01;15.80;99.90
35692;DHT22;26978;44.830;-0.674;2023-03-31T11:46:36;15.70;99.90
35692;DHT22;26978;44.830;-0.674;2023-03-31T11:49:18;15.60;99.90
35692;DHT22;26978;44.830;-0.674;2023-03-31T11:57:29;15.60;99.90
35692;DHT22;26978;44.830;-0.674;2023-03-31T11:59:59;15.70;99.90
35692;DHT22;26978;44.830;-0.674;2023-03-31T12:05:26;15.80;99.90
35692;DHT22;26978;44.830;-0.674;2023-03-31T12:10:35;15.80;99.90
35692;DHT22;26978;44.830;-0.674;2023-03-31T12:15:41;15.60;99.90
35692;DHT22;26978;44.830;-0.674;2023-03-31T12:18:13;15.60;99.90
35692;DHT22;26978;44.830;-0.674;2023-03-31T12:20:43;15.50;99.90
35692;DHT22;26978;44.830;-0.674;2023-03-31T12:23:16;15.30;99.90
35692;DHT22;26978;44.830;-0.674;2023-03-31T12:26:12;14.50;99.90
35692;DHT22;26978;44.830;-0.674;2023-03-31T12:28:40;14.30;99.90
35692;DHT22;26978;44.830;-0.674;2023-03-31T12:31:12;14.50;99.90
35692;DHT22;26978;44.830;-0.674;2023-03-31T12:33:52;15.00;99.90
35692;DHT22;26978;44.830;-0.674;2023-03-31T12:47:52;15.60;99.90
35692;DHT22;26978;44.830;-0.674;2023-03-31T12:53:01;16.00;99.90
35692;DHT22;26978;44.830;-0.674;2023-03-31T12:55:41;15.80;99.90
35692;DHT22;26978;44.830;-0.674;2023-03-31T13:14:14;15.60;99.90
35692;DHT22;26978;44.830;-0.674;2023-03-31T13:16:41;15.70;99.90
35692;DHT22;26978;44.830;-0.674;2023-03-31T13:19:10;15.60;99.90
35692;DHT22;26978;44.830;-0.674;2023-03-31T13:22:04;15.60;99.90
35692;DHT22;26978;44.830;-0.674;2023-03-31T13:24:31;15.60;99.90
35692;DHT22;26978;44.830;-0.674;2023-03-31T13:27:23;15.60;99.90
35692;DHT22;26978;44.830;-0.674;2023-03-31T13:29:44;15.70;99.90
35692;DHT22;26978;44.830;-0.674;2023-03-31T13:32:22;16.10;99.90
35692;DHT22;26978;44.830;-0.674;2023-03-31T13:34:58;16.10;99.90
35692;DHT22;26978;44.830;-0.674;2023-03-31T13:51:39;13.70;99.90
35692;DHT22;26978;44.830;-0.674;2023-03-31T13:59:55;14.30;99.90
35692;DHT22;26978;44.830;-0.674;2023-03-31T14:05:37;14.60;99.90
35692;DHT22;26978;44.830;-0.674;2023-03-31T14:08:18;14.80;99.90
35692;DHT22;26978;44.830;-0.674;2023-03-31T14:10:45;14.80;99.90
35692;DHT22;26978;44.830;-0.674;2023-03-31T14:13:12;14.70;99.90
35692;DHT22;26978;44.830;-0.674;2023-03-31T14:15:57;14.60;99.90
35692;DHT22;26978;44.830;-0.674;2023-03-31T14:18:24;14.60;99.90
35692;DHT22;26978;44.830;-0.674;2023-03-31T14:32:06;14.70;99.90
35692;DHT22;26978;44.830;-0.674;2023-03-31T14:37:42;15.00;99.90
35692;DHT22;26978;44.830;-0.674;2023-03-31T14:40:13;14.90;99.90
35692;DHT22;26978;44.830;-0.674;2023-03-31T14:42:41;14.90;99.90
35692;DHT22;26978;44.830;-0.674;2023-03-31T14:45:23;15.00;99.90
35692;DHT22;26978;44.830;-0.674;2023-03-31T14:47:57;15.00;99.90
35692;DHT22;26978;44.830;-0.674;2023-03-31T14:50:33;15.00;99.90
35692;DHT22;26978;44.830;-0.674;2023-03-31T14:52:59;15.20;99.90
35692;DHT22;26978;44.830;-0.674;2023-03-31T14:55:28;15.00;99.90
35692;DHT22;26978;44.830;-0.674;2023-03-31T14:57:56;14.90;99.90
35692;DHT22;26978;44.830;-0.674;2023-03-31T15:00:32;15.00;99.90
35692;DHT22;26978;44.830;-0.674;2023-03-31T15:02:59;14.90;99.90
35692;DHT22;26978;44.830;-0.674;2023-03-31T15:05:35;14.90;99.90
35692;DHT22;26978;44.830;-0.674;2023-03-31T15:08:05;14.80;99.90
35692;DHT22;26978;44.830;-0.674;2023-03-31T15:10:44;14.80;99.90
35692;DHT22;26978;44.830;-0.674;2023-03-31T15:13:18;14.80;99.90
35692;DHT22;26978;44.830;-0.674;2023-03-31T15:15:44;14.90;99.90
35692;DHT22;26978;44.830;-0.674;2023-03-31T15:18:15;15.20;99.90
35692;DHT22;26978;44.830;-0.674;2023-03-31T15:20:42;15.00;99.90
35692;DHT22;26978;44.830;-0.674;2023-03-31T15:23:39;15.10;99.90
35692;DHT22;26978;44.830;-0.674;2023-03-31T15:26:07;15.00;99.90
35692;DHT22;26978;44.830;-0.674;2023-03-31T15:28:40;14.90;99.90
35692;DHT22;26978;44.830;-0.674;2023-03-31T15:31:13;15.00;99.90
35692;DHT22;26978;44.830;-0.674;2023-03-31T15:33:39;15.10;99.90
35692;DHT22;26978;44.830;-0.674;2023-03-31T15:36:10;15.20;99.90
35692;DHT22;26978;44.830;-0.674;2023-03-31T15:38:36;15.50;99.90
35692;DHT22;26978;44.830;-0.674;2023-03-31T15:41:02;15.70;99.90
35692;DHT22;26978;44.830;-0.674;2023-03-31T15:46:24;15.50;99.90
35692;DHT22;26978;44.830;-0.674;2023-03-31T15:48:52;15.40;99.90
35692;DHT22;26978;44.830;-0.674;2023-03-31T15:51:24;15.50;99.90
35692;DHT22;26978;44.830;-0.674;2023-03-31T15:53:52;16.00;99.90
35692;DHT22;26978;44.830;-0.674;2023-03-31T15:56:34;16.10;99.90
35692;DHT22;26978;44.830;-0.674;2023-03-31T15:59:24;16.10;99.90
35692;DHT22;26978;44.830;-0.674;2023-03-31T16:01:51;15.80;99.90
35692;DHT22;26978;44.830;-0.674;2023-03-31T16:04:17;15.80;99.90
35692;DHT22;26978;44.830;-0.674;2023-03-31T16:09:22;16.30;99.90
35692;DHT22;26978;44.830;-0.674;2023-03-31T16:11:52;15.90;99.90
35692;DHT22;26978;44.830;-0.674;2023-03-31T16:17:04;16.20;99.90
35692;DHT22;26978;44.830;-0.674;2023-03-31T16:19:41;16.20;99.90
35692;DHT22;26978;44.830;-0.674;2023-03-31T16:22:16;16.20;99.90
35692;DHT22;26978;44.830;-0.674;2023-03-31T16:24:43;15.90;99.90
35692;DHT22;26978;44.830;-0.674;2023-03-31T16:27:10;15.80;99.90
35692;DHT22;26978;44.830;-0.674;2023-03-31T16:29:36;15.40;99.90
35692;DHT22;26978;44.830;-0.674;2023-03-31T16:32:13;15.20;99.90
35692;DHT22;26978;44.830;-0.674;2023-03-31T16:35:01;15.30;99.90
35692;DHT22;26978;44.830;-0.674;2023-03-31T16:37:27;15.10;99.90
35692;DHT22;26978;44.830;-0.674;2023-03-31T16:39:53;15.10;99.90
35692;DHT22;26978;44.830;-0.674;2023-03-31T16:42:20;14.70;99.90
35692;DHT22;26978;44.830;-0.674;2023-03-31T16:44:46;14.70;99.90
35692;DHT22;26978;44.830;-0.674;2023-03-31T16:47:13;14.60;99.90
35692;DHT22;26978;44.830;-0.674;2023-03-31T16:49:39;14.60;99.90
35692;DHT22;26978;44.830;-0.674;2023-03-31T16:52:05;14.70;99.90
35692;DHT22;26978;44.830;-0.674;2023-03-31T16:54:31;14.70;99.90
35692;DHT22;26978;44.830;-0.674;2023-03-31T16:56:57;14.80;99.90
35692;DHT22;26978;44.830;-0.674;2023-03-31T16:59:23;14.60;99.90
35692;DHT22;26978;44.830;-0.674;2023-03-31T17:01:49;14.50;99.90
35692;DHT22;26978;44.830;-0.674;2023-03-31T17:04:15;14.50;99.90
35692;DHT22;26978;44.830;-0.674;2023-03-31T17:06:41;14.50;99.90
35692;DHT22;26978;44.830;-0.674;2023-03-31T17:09:07;14.40;99.90
35692;DHT22;26978;44.830;-0.674;2023-03-31T17:11:32;14.50;99.90
35692;DHT22;26978;44.830;-0.674;2023-03-31T17:13:58;14.50;99.90
35692;DHT22;26978;44.830;-0.674;2023-03-31T17:16:25;14.50;99.90
35692;DHT22;26978;44.830;-0.674;2023-03-31T17:18:51;14.40;99.90
35692;DHT22;26978;44.830;-0.674;2023-03-31T17:21:18;14.20;99.90
35692;DHT22;26978;44.830;-0.674;2023-03-31T17:23:44;14.20;99.90
35692;DHT22;26978;44.830;-0.674;2023-03-31T17:26:11;14.10;99.90
35692;DHT22;26978;44.830;-0.674;2023-03-31T17:28:37;14.10;99.90
35692;DHT22;26978;44.830;-0.674;2023-03-31T17:31:22;14.10;99.90
35692;DHT22;26978;44.830;-0.674;2023-03-31T17:33:48;14.00;99.90
35692;DHT22;26978;44.830;-0.674;2023-03-31T17:36:14;14.00;99.90
35692;DHT22;26978;44.830;-0.674;2023-03-31T17:38:41;14.00;99.90
35692;DHT22;26978;44.830;-0.674;2023-03-31T17:41:09;14.10;99.90
35692;DHT22;26978;44.830;-0.674;2023-03-31T17:43:35;14.10;99.90
35692;DHT22;26978;44.830;-0.674;2023-03-31T17:46:03;14.00;99.90
35692;DHT22;26978;44.830;-0.674;2023-03-31T17:48:30;13.90;99.90
35692;DHT22;26978;44.830;-0.674;2023-03-31T17:51:03;13.80;99.90
35692;DHT22;26978;44.830;-0.674;2023-03-31T17:53:29;13.70;99.90
35692;DHT22;26978;44.830;-0.674;2023-03-31T17:55:54;13.60;99.90
35692;DHT22;26978;44.830;-0.674;2023-03-31T17:58:20;13.60;99.90
35692;DHT22;26978;44.830;-0.674;2023-03-31T18:00:47;13.60;99.90
35692;DHT22;26978;44.830;-0.674;2023-03-31T18:03:12;13.60;99.90
35692;DHT22;26978;44.830;-0.674;2023-03-31T18:05:38;13.50;99.90
35692;DHT22;26978;44.830;-0.674;2023-03-31T18:08:05;13.50;99.90
35692;DHT22;26978;44.830;-0.674;2023-03-31T18:10:31;13.50;99.90
35692;DHT22;26978;44.830;-0.674;2023-03-31T18:12:57;13.40;99.90
35692;DHT22;26978;44.830;-0.674;2023-03-31T18:15:24;13.40;99.90
35692;DHT22;26978;44.830;-0.674;2023-03-31T18:17:50;13.40;99.90
35692;DHT22;26978;44.830;-0.674;2023-03-31T18:20:16;13.40;99.90
35692;DHT22;26978;44.830;-0.674;2023-03-31T18:22:41;13.30;99.90
35692;DHT22;26978;44.830;-0.674;2023-03-31T18:25:08;13.30;99.90
35692;DHT22;26978;44.830;-0.674;2023-03-31T18:27:34;13.30;99.90
35692;DHT22;26978;44.830;-0.674;2023-03-31T18:30:00;13.20;99.90
35692;DHT22;26978;44.830;-0.674;2023-03-31T18:32:26;13.20;99.90
35692;DHT22;26978;44.830;-0.674;2023-03-31T18:34:51;13.20;99.90
35692;DHT22;26978;44.830;-0.674;2023-03-31T18:37:17;13.20;99.90
35692;DHT22;26978;44.830;-0.674;2023-03-31T18:39:43;13.20;99.90
35692;DHT22;26978;44.830;-0.674;2023-03-31T18:42:08;13.20;99.90
35692;DHT22;26978;44.830;-0.674;2023-03-31T18:44:34;13.20;99.90
35692;DHT22;26978;44.830;-0.674;2023-03-31T18:47:01;13.20;99.90
35692;DHT22;26978;44.830;-0.674;2023-03-31T18:49:26;13.20;99.90
35692;DHT22;26978;44.830;-0.674;2023-03-31T18:51:52;13.10;99.90